Time;durP1;ratioP1;P1;durP2;ratioP2;P2;SDS_P1;SDS_P2;PMS_P1;PMS_P2;Temp;Humidity;BMP_temperature;BMP_pressure;BME280_temperature;BME280_humidity;BME280_pressure;Samples;Min_cycle;Max_cycle;Signal;HPM_P1;HPM_P2
2022/08/19 00:00:32;;;;;;;4.57;3.47;;;;;;;16.37;100.00;95942.09;5083683;28;20205;-78
2022/08/19 00:03:00;;;;;;;4.80;3.20;;;;;;;16.37;100.00;95947.56;5075110;28;20205;-79
2022/08/19 00:05:27;;;;;;;4.63;3.37;;;;;;;16.39;100.00;95948.09;5077726;28;20210;-79
2022/08/19 00:07:54;;;;;;;3.80;2.80;;;;;;;16.37;100.00;95944.00;5080475;28;20681;-79
2022/08/19 00:10:22;;;;;;;6.27;3.30;;;;;;;16.41;100.00;95954.09;5081132;28;20218;-78
2022/08/19 00:12:49;;;;;;;3.60;3.30;;;;;;;16.37;100.00;95965.81;5079143;28;20207;-79
2022/08/19 00:15:18;;;;;;;7.17;3.60;;;;;;;16.27;100.00;95967.47;5076096;28;20295;-79
2022/08/19 00:17:46;;;;;;;5.97;3.10;;;;;;;16.29;100.00;95969.91;5081224;28;20244;-79
2022/08/19 00:20:17;;;;;;;6.57;3.53;;;;;;;16.31;100.00;95972.38;5081541;28;20205;-79
2022/08/19 00:22:45;;;;;;;4.07;3.13;;;;;;;16.34;100.00;95967.16;5085589;28;20215;-78
2022/08/19 00:25:13;;;;;;;3.23;2.93;;;;;;;16.41;100.00;95964.19;5082662;28;20204;-79
2022/08/19 00:27:40;;;;;;;3.33;2.70;;;;;;;16.45;100.00;95968.78;5083453;28;20211;-79
2022/08/19 00:30:10;;;;;;;3.57;2.60;;;;;;;16.44;100.00;95960.88;5083634;28;20236;-79
2022/08/19 00:32:37;;;;;;;5.00;2.60;;;;;;;16.43;100.00;95961.97;5074549;28;20207;-79
2022/08/19 00:35:05;;;;;;;3.37;2.43;;;;;;;16.35;100.00;95957.91;5075695;28;20201;-79
2022/08/19 00:37:34;;;;;;;3.10;2.60;;;;;;;16.32;100.00;95958.47;5085038;28;20251;-78
2022/08/19 00:40:03;;;;;;;3.80;2.30;;;;;;;16.37;100.00;95954.91;5083954;28;20208;-79
2022/08/19 00:42:30;;;;;;;4.37;2.53;;;;;;;16.40;100.00;95948.94;5084254;28;20216;-79
2022/08/19 00:44:57;;;;;;;5.03;2.53;;;;;;;16.41;100.00;95942.38;5073963;28;20217;-79
2022/08/19 00:47:24;;;;;;;3.40;1.93;;;;;;;16.36;100.00;95940.47;5086825;28;20213;-79
2022/08/19 00:49:56;;;;;;;3.60;2.20;;;;;;;16.28;100.00;95935.59;5084819;28;20207;-79
2022/08/19 00:52:28;;;;;;;5.63;2.10;;;;;;;16.24;100.00;95923.63;5084660;28;20240;-79
2022/08/19 00:54:58;;;;;;;4.50;2.20;;;;;;;16.32;100.00;95936.69;5084985;28;20642;-78
2022/08/19 00:57:30;;;;;;;3.03;2.00;;;;;;;16.35;100.00;95929.84;5084781;28;20244;-79
2022/08/19 00:59:59;;;;;;;4.50;2.20;;;;;;;16.36;100.00;95921.41;5084017;28;20213;-78
2022/08/19 01:02:27;;;;;;;2.20;1.97;;;;;;;16.39;100.00;95917.31;5074643;28;20200;-79
2022/08/19 01:04:55;;;;;;;3.37;2.30;;;;;;;16.37;100.00;95912.13;5078984;28;20336;-79
2022/08/19 01:07:22;;;;;;;4.83;2.43;;;;;;;16.35;100.00;95902.59;5075460;28;20192;-78
2022/08/19 01:09:50;;;;;;;2.70;2.10;;;;;;;16.33;100.00;95905.63;5094369;28;20228;-78
2022/08/19 01:12:19;;;;;;;2.10;1.90;;;;;;;16.37;100.00;95908.59;5087474;28;20199;-78
2022/08/19 01:14:47;;;;;;;4.63;2.30;;;;;;;16.35;100.00;95919.75;5082779;28;20265;-79
2022/08/19 01:17:16;;;;;;;2.40;2.20;;;;;;;16.30;100.00;95911.63;5079686;28;20221;-79
2022/08/19 01:19:46;;;;;;;2.40;2.00;;;;;;;16.32;100.00;95909.44;5082472;28;20209;-79
2022/08/19 01:22:20;;;;;;;2.20;2.00;;;;;;;16.34;100.00;95907.22;5085638;28;20217;-79
2022/08/19 01:24:49;;;;;;;3.47;1.90;;;;;;;16.40;100.00;95900.69;5086167;28;20220;-79
2022/08/19 01:27:16;;;;;;;5.10;2.00;;;;;;;16.43;100.00;95907.47;5076865;28;20200;-78
2022/08/19 01:29:45;;;;;;;6.20;2.20;;;;;;;16.45;100.00;95911.56;5079019;28;20258;-79
2022/08/19 01:32:15;;;;;;;3.47;1.97;;;;;;;16.48;100.00;95907.47;5091683;28;20214;-79
2022/08/19 01:34:46;;;;;;;5.97;2.10;;;;;;;16.50;100.00;95908.03;5081896;28;20204;-79
2022/08/19 01:37:16;;;;;;;2.50;1.90;;;;;;;16.49;100.00;95911.84;5073042;28;20652;-78
2022/08/19 01:39:44;;;;;;;2.53;1.80;;;;;;;16.49;100.00;95909.94;5088957;28;20201;-79
2022/08/19 01:42:12;;;;;;;2.80;1.60;;;;;;;16.48;100.00;95911.03;5087446;28;20210;-78
2022/08/19 01:44:40;;;;;;;2.00;1.70;;;;;;;16.49;100.00;95898.22;5077519;28;20206;-79
2022/08/19 01:47:09;;;;;;;2.20;1.63;;;;;;;16.54;100.00;95904.44;5072830;28;20204;-79
2022/08/19 01:49:37;;;;;;;5.87;1.70;;;;;;;16.56;100.00;95898.72;5097498;28;20214;-79
2022/08/19 01:52:06;;;;;;;3.27;1.60;;;;;;;16.51;100.00;95902.25;5079081;28;20203;-79
2022/08/19 01:54:33;;;;;;;6.07;1.80;;;;;;;16.53;100.00;95883.72;5073560;28;20267;-79
2022/08/19 01:57:06;;;;;;;3.17;1.90;;;;;;;16.50;100.00;95876.09;5082621;28;20362;-79
2022/08/19 01:59:36;;;;;;;5.20;1.90;;;;;;;16.50;100.00;95869.88;5075471;28;20223;-78
2022/08/19 02:02:07;;;;;;;3.93;2.20;;;;;;;16.45;100.00;95870.69;5079781;28;20266;-78
2022/08/19 02:04:34;;;;;;;3.27;2.40;;;;;;;16.49;100.00;95884.59;5078998;28;20208;-78
2022/08/19 02:07:01;;;;;;;4.47;2.20;;;;;;;16.50;100.00;95888.94;5077400;28;20263;-79
2022/08/19 02:09:29;;;;;;;3.03;2.20;;;;;;;16.51;100.00;95896.81;5079022;28;20209;-79
2022/08/19 02:11:56;;;;;;;2.60;2.40;;;;;;;16.49;100.00;95893.56;5084757;28;20209;-79
2022/08/19 02:14:23;;;;;;;2.50;2.30;;;;;;;16.61;100.00;95905.00;5078685;28;20298;-79
2022/08/19 02:16:51;;;;;;;3.00;2.50;;;;;;;16.55;100.00;95911.53;5081882;28;20216;-78
2022/08/19 02:19:18;;;;;;;2.57;2.23;;;;;;;16.53;100.00;95927.34;5079040;28;20216;-79
2022/08/19 02:21:45;;;;;;;3.83;2.57;;;;;;;16.49;100.00;95925.47;5084976;28;20200;-80
2022/08/19 02:24:13;;;;;;;6.00;3.40;;;;;;;16.49;100.00;95934.47;5080534;28;20212;-80
2022/08/19 02:26:40;;;;;;;10.17;5.87;;;;;;;16.50;100.00;95949.69;5079866;28;20217;-79
2022/08/19 02:29:09;;;;;;;5.70;2.70;;;;;;;16.51;100.00;95940.41;5075715;28;20229;-79
2022/08/19 02:31:36;;;;;;;3.03;2.30;;;;;;;16.54;100.00;95945.31;5071428;28;20255;-78
2022/08/19 02:34:04;;;;;;;5.43;2.43;;;;;;;16.59;100.00;95941.75;5076948;28;20203;-79
2022/08/19 02:36:31;;;;;;;2.90;2.30;;;;;;;16.61;100.00;95936.88;5079034;28;20288;-80
2022/08/19 02:38:57;;;;;;;4.17;2.70;;;;;;;16.62;100.00;95941.25;5084095;28;20217;-79
2022/08/19 02:41:28;;;;;;;5.77;2.60;;;;;;;16.63;100.00;95932.78;5083780;28;20236;-78
2022/08/19 02:43:56;;;;;;;3.30;2.10;;;;;;;16.65;100.00;95918.88;5075391;28;20202;-79
2022/08/19 02:46:26;;;;;;;2.67;2.00;;;;;;;16.67;100.00;95918.63;5082677;28;20249;-79
2022/08/19 02:48:56;;;;;;;3.03;2.10;;;;;;;16.63;100.00;95926.53;5069283;28;20224;-80
2022/08/19 02:51:26;;;;;;;2.90;2.20;;;;;;;16.58;100.00;95929.25;5087385;28;20207;-79
2022/08/19 02:53:53;;;;;;;2.87;2.20;;;;;;;16.55;100.00;95916.97;5095921;28;20259;-79
2022/08/19 02:56:21;;;;;;;6.40;2.30;;;;;;;16.57;100.00;95920.25;5078021;28;20221;-79
2022/08/19 02:58:49;;;;;;;2.80;2.50;;;;;;;16.54;100.00;95915.34;5074515;28;20315;-79
2022/08/19 03:01:21;;;;;;;3.00;2.17;;;;;;;16.51;100.00;95910.44;5073824;28;20212;-79
2022/08/19 03:03:49;;;;;;;3.43;2.40;;;;;;;16.50;100.00;95911.53;5075905;28;20201;-80
2022/08/19 03:06:17;;;;;;;2.50;1.90;;;;;;;16.54;100.00;95912.63;5085968;28;20208;-79
2022/08/19 03:08:47;;;;;;;5.33;2.53;;;;;;;16.56;100.00;95905.00;5086071;28;20216;-80
2022/08/19 03:11:16;;;;;;;3.20;2.03;;;;;;;16.57;100.00;95903.09;5085832;28;20246;-80
2022/08/19 03:13:44;;;;;;;4.97;2.10;;;;;;;16.53;100.00;95910.16;5083110;28;20209;-80
2022/08/19 03:16:12;;;;;;;3.20;2.20;;;;;;;16.44;100.00;95904.47;5082567;28;20232;-79
2022/08/19 03:18:39;;;;;;;5.93;2.90;;;;;;;16.48;100.00;95902.84;5078209;28;20216;-80
2022/08/19 03:21:07;;;;;;;4.57;2.80;;;;;;;16.48;100.00;95894.66;5078667;28;20220;-80
2022/08/19 03:23:35;;;;;;;4.10;2.67;;;;;;;16.50;100.00;95895.19;5084789;28;20208;-79
2022/08/19 03:26:06;;;;;;;2.60;2.40;;;;;;;16.50;100.00;95899.84;5076354;28;20237;-79
2022/08/19 03:28:34;;;;;;;2.60;2.40;;;;;;;16.42;100.00;95889.50;5078128;28;20209;-79
2022/08/19 03:31:04;;;;;;;3.60;2.80;;;;;;;16.38;100.00;95886.53;5078477;28;20198;-80
2022/08/19 03:33:32;;;;;;;4.43;2.73;;;;;;;16.37;100.00;95889.53;5081977;28;20212;-79
2022/08/19 03:36:08;;;;;;;3.77;2.67;;;;;;;16.36;100.00;95880.53;5096050;28;20200;-78
2022/08/19 03:38:36;;;;;;;3.03;2.50;;;;;;;16.36;100.00;95888.72;5078166;28;20653;-79
2022/08/19 03:41:07;;;;;;;5.93;2.93;;;;;;;16.39;100.00;95877.25;5079136;28;20208;-80
2022/08/19 03:43:36;;;;;;;5.67;2.90;;;;;;;16.43;100.00;95874.78;5082450;28;20209;-79
2022/08/19 03:46:05;;;;;;;2.57;2.20;;;;;;;16.51;100.00;95882.38;5076324;28;20207;-80
2022/08/19 03:48:32;;;;;;;4.80;2.57;;;;;;;16.50;100.00;95870.66;5083238;28;20269;-79
2022/08/19 03:51:00;;;;;;;4.13;2.60;;;;;;;16.50;100.00;95884.28;5081910;28;20200;-79
2022/08/19 03:53:28;;;;;;;4.70;2.90;;;;;;;16.51;100.00;95885.91;5081461;28;20288;-80
2022/08/19 03:55:55;;;;;;;4.13;2.70;;;;;;;16.47;100.00;95884.84;5085230;28;20287;-80
2022/08/19 03:58:24;;;;;;;3.80;2.93;;;;;;;16.47;100.00;95895.75;5069154;28;20231;-79
2022/08/19 04:00:51;;;;;;;4.27;3.00;;;;;;;16.48;100.00;95899.31;5078221;28;20219;-80
2022/08/19 04:03:19;;;;;;;6.67;2.67;;;;;;;16.51;100.00;95902.25;5080615;28;20305;-80
2022/08/19 04:05:47;;;;;;;3.47;2.20;;;;;;;16.49;100.00;95904.47;5070254;28;20206;-80
2022/08/19 04:08:15;;;;;;;5.80;2.40;;;;;;;16.39;100.00;95903.69;5084170;28;20212;-80
2022/08/19 04:10:42;;;;;;;3.60;2.63;;;;;;;16.41;100.00;95902.31;5081121;28;20243;-80
2022/08/19 04:13:09;;;;;;;3.43;2.57;;;;;;;16.41;100.00;95896.88;5080835;28;20216;-79
2022/08/19 04:15:42;;;;;;;5.13;2.50;;;;;;;16.42;100.00;95897.66;5087044;28;20344;-80
2022/08/19 04:18:10;;;;;;;5.23;2.53;;;;;;;16.46;100.00;95896.03;5081890;28;20231;-80
2022/08/19 04:20:41;;;;;;;5.77;2.90;;;;;;;16.48;100.00;95900.13;5080557;28;20216;-80
2022/08/19 04:23:09;;;;;;;4.37;2.90;;;;;;;16.48;100.00;95897.41;5081498;28;20238;-80
2022/08/19 04:25:38;;;;;;;8.30;5.47;;;;;;;16.50;100.00;95900.63;5082483;28;20260;-79
2022/08/19 04:28:06;;;;;;;3.67;2.70;;;;;;;16.53;100.00;95908.25;5081370;28;20205;-80
2022/08/19 04:30:41;;;;;;;4.33;2.40;;;;;;;16.46;100.00;95899.56;5080624;28;20205;-80
2022/08/19 04:33:09;;;;;;;3.77;2.53;;;;;;;16.46;100.00;95907.75;5076202;28;20211;-80
2022/08/19 04:35:38;;;;;;;6.37;3.00;;;;;;;16.49;100.00;95915.38;5074781;28;20345;-80
2022/08/19 04:38:06;;;;;;;4.37;2.50;;;;;;;16.52;100.00;95912.09;5082262;28;20214;-80
2022/08/19 04:43:19;;;;;;;4.27;2.80;;;;;;;16.52;100.00;95914.81;5081645;28;20209;-80
2022/08/19 04:45:47;;;;;;;2.90;2.63;;;;;;;16.52;100.00;95928.44;5074300;28;20189;-79
2022/08/19 04:48:15;;;;;;;6.33;3.03;;;;;;;16.50;100.00;95925.16;5075801;28;20240;-80
2022/08/19 04:50:44;;;;;;;5.37;2.77;;;;;;;16.51;100.00;95934.97;5079291;28;20199;-78
2022/08/19 04:53:12;;;;;;;3.20;2.67;;;;;;;16.54;100.00;95944.50;5082384;28;20274;-78
2022/08/19 04:55:42;;;;;;;2.47;2.23;;;;;;;16.53;100.00;95951.06;5077596;28;20205;-78
2022/08/19 04:58:09;;;;;;;3.00;2.33;;;;;;;16.54;100.00;95953.50;5078840;28;20270;-79
2022/08/19 05:00:39;;;;;;;4.10;2.43;;;;;;;16.55;100.00;95960.59;5082158;28;20216;-78
2022/08/19 05:03:08;;;;;;;3.53;2.33;;;;;;;16.55;100.00;95960.59;5081136;28;20213;-78
2022/08/19 05:05:39;;;;;;;3.60;2.60;;;;;;;16.59;100.00;95963.56;5069335;28;20194;-76
2022/08/19 05:08:07;;;;;;;3.17;2.50;;;;;;;16.56;100.00;95970.41;5072848;28;20570;-76
2022/08/19 05:10:36;;;;;;;2.97;2.27;;;;;;;16.53;100.00;95965.50;5083018;28;20205;-79
2022/08/19 05:13:04;;;;;;;3.93;2.73;;;;;;;16.53;100.00;95967.41;5072896;28;20207;-78
2022/08/19 05:15:31;;;;;;;3.47;2.47;;;;;;;16.53;100.00;95970.94;5078442;28;20244;-78
2022/08/19 05:23:29;;;;;;;2.77;2.47;;;;;;;16.56;100.00;95970.41;5074467;28;20282;-79
2022/08/19 05:25:56;;;;;;;4.47;2.80;;;;;;;16.53;100.00;95978.31;5075820;28;20297;-79
2022/08/19 05:28:23;;;;;;;6.80;3.20;;;;;;;16.52;100.00;95969.31;5078424;28;20209;-79
2022/08/19 05:30:50;;;;;;;2.83;2.57;;;;;;;16.46;100.00;95973.16;5080787;28;20209;-79
2022/08/19 05:33:18;;;;;;;5.97;3.03;;;;;;;16.42;100.00;95977.50;5080002;28;20204;-79
2022/08/19 05:35:48;;;;;;;4.43;2.70;;;;;;;16.43;100.00;95979.13;5079642;28;20253;-80
2022/08/19 05:38:15;;;;;;;4.07;2.70;;;;;;;16.46;100.00;95980.50;5075363;28;20209;-80
2022/08/19 05:40:45;;;;;;;3.80;2.80;;;;;;;16.45;100.00;95979.69;5074410;28;20201;-81
2022/08/19 05:43:15;;;;;;;4.37;2.67;;;;;;;16.49;100.00;95991.69;5077740;28;20206;-81
2022/08/19 05:45:43;;;;;;;3.60;2.57;;;;;;;16.52;100.00;95988.38;5084176;28;20201;-80
2022/08/19 05:48:11;;;;;;;4.67;2.77;;;;;;;16.52;100.00;95985.66;5081359;28;20231;-80
2022/08/19 05:50:38;;;;;;;5.03;2.83;;;;;;;16.45;100.00;95981.59;5085874;28;20223;-80
2022/08/19 05:53:08;;;;;;;3.73;2.80;;;;;;;16.47;100.00;95988.41;5086803;28;20216;-80
2022/08/19 05:55:37;;;;;;;3.13;2.60;;;;;;;16.45;100.00;95979.69;5091298;28;20205;-80
2022/08/19 05:58:07;;;;;;;3.50;2.90;;;;;;;16.46;100.00;95991.41;5077648;28;20482;-80
2022/08/19 06:00:34;;;;;;;3.80;2.30;;;;;;;16.42;100.00;95984.88;5085019;28;20306;-80
2022/08/19 06:03:02;;;;;;;4.40;2.80;;;;;;;16.41;100.00;95986.81;5083071;28;20246;-81
2022/08/19 06:05:30;;;;;;;5.00;2.90;;;;;;;16.46;100.00;95984.06;5078006;28;20208;-80
2022/08/19 06:07:58;;;;;;;3.23;2.77;;;;;;;16.49;100.00;95997.13;5081969;28;20213;-80
2022/08/19 06:10:28;;;;;;;2.90;2.60;;;;;;;16.55;100.00;95987.84;5071039;28;20225;-80
2022/08/19 06:12:55;;;;;;;2.77;2.27;;;;;;;16.53;100.00;95981.84;5087582;28;20200;-81
2022/08/19 06:15:25;;;;;;;3.33;3.03;;;;;;;16.54;100.00;95988.94;5081643;28;20236;-79
2022/08/19 06:17:52;;;;;;;2.97;2.10;;;;;;;16.55;100.00;95992.47;5080630;28;20216;-80
2022/08/19 06:20:20;;;;;;;2.60;2.20;;;;;;;16.57;100.00;95993.84;5076747;28;20216;-81
2022/08/19 06:22:49;;;;;;;4.60;2.07;;;;;;;16.57;100.00;95991.13;5078294;28;20205;-80
2022/08/19 06:25:17;;;;;;;5.50;2.23;;;;;;;16.54;100.00;96005.28;5082739;28;20208;-80
2022/08/19 06:27:45;;;;;;;2.30;2.10;;;;;;;16.53;100.00;95991.94;5080211;28;20228;-79
2022/08/19 06:30:13;;;;;;;2.93;2.23;;;;;;;16.59;100.00;95999.00;5080812;28;20201;-80
2022/08/19 06:32:41;;;;;;;2.43;2.10;;;;;;;16.59;100.00;96007.16;5077545;28;20232;-80
2022/08/19 06:35:08;;;;;;;2.30;2.10;;;;;;;16.57;100.00;96004.75;5076609;28;20267;-80
2022/08/19 06:37:37;;;;;;;4.17;2.80;;;;;;;16.57;100.00;96010.19;5073054;28;20218;-80
2022/08/19 06:40:05;;;;;;;2.70;2.50;;;;;;;16.63;100.00;96011.84;5083027;28;20212;-80
2022/08/19 06:42:34;;;;;;;3.47;2.60;;;;;;;16.70;100.00;96018.91;5077482;28;20339;-81
2022/08/19 06:45:05;;;;;;;3.20;2.70;;;;;;;16.72;100.00;96016.72;5076592;28;20206;-80
2022/08/19 06:47:33;;;;;;;3.10;2.80;;;;;;;16.62;100.00;96018.38;5077306;28;20636;-80
2022/08/19 06:50:02;;;;;;;3.20;2.63;;;;;;;16.67;100.00;96020.31;5084528;28;20196;-81
2022/08/19 06:52:30;;;;;;;3.80;3.20;;;;;;;16.66;100.00;96031.47;5085077;28;20208;-80
2022/08/19 06:54:57;;;;;;;4.20;3.23;;;;;;;16.68;100.00;96040.16;5087574;28;20197;-79
2022/08/19 06:57:25;;;;;;;4.20;3.37;;;;;;;16.68;100.00;96034.72;5082837;28;20221;-80
2022/08/19 06:59:52;;;;;;;4.70;3.40;;;;;;;16.72;100.00;96038.53;5082808;28;20209;-80
2022/08/19 07:02:25;;;;;;;5.97;4.00;;;;;;;16.71;100.00;96039.63;5073008;28;20274;-79
2022/08/19 07:04:53;;;;;;;6.37;4.50;;;;;;;16.74;100.00;96041.81;5077592;28;20200;-79
2022/08/19 07:07:22;;;;;;;5.37;4.27;;;;;;;16.74;100.00;96041.81;5085762;28;20197;-78
2022/08/19 07:09:53;;;;;;;6.07;3.67;;;;;;;16.70;100.00;96046.16;5082819;28;20217;-80
2022/08/19 07:12:20;;;;;;;4.80;3.97;;;;;;;16.70;100.00;96052.44;5075989;28;20205;-79
2022/08/19 07:14:49;;;;;;;4.80;3.90;;;;;;;16.72;100.00;96052.16;5075457;28;20225;-79
2022/08/19 07:17:16;;;;;;;4.30;3.70;;;;;;;16.75;100.00;96060.63;5075714;28;20202;-79
2022/08/19 07:19:44;;;;;;;5.27;4.43;;;;;;;16.75;100.00;96065.25;5085975;28;20256;-80
2022/08/19 07:22:12;;;;;;;5.20;4.40;;;;;;;16.72;100.00;96057.63;5085045;28;20205;-80
2022/08/19 07:24:39;;;;;;;5.93;4.67;;;;;;;16.71;100.00;96055.97;5071201;28;20212;-81
2022/08/19 07:27:09;;;;;;;6.00;4.70;;;;;;;16.73;100.00;96059.25;5087477;28;20205;-81
2022/08/19 07:29:38;;;;;;;6.00;4.90;;;;;;;16.75;100.00;96065.25;5082813;28;20201;-80
2022/08/19 07:32:05;;;;;;;5.57;4.93;;;;;;;16.75;100.00;96070.72;5082070;28;20201;-80
2022/08/19 07:34:36;;;;;;;7.03;5.17;;;;;;;16.69;100.00;96061.72;5089524;28;20200;-80
2022/08/19 07:37:05;;;;;;;7.47;5.47;;;;;;;16.71;100.00;96073.16;5074829;28;20198;-79
2022/08/19 07:39:35;;;;;;;5.43;4.87;;;;;;;16.73;100.00;96073.72;5079355;28;20220;-79
2022/08/19 07:42:07;;;;;;;8.10;5.63;;;;;;;16.70;100.00;96076.97;5087437;28;20224;-80
2022/08/19 07:44:34;;;;;;;6.70;5.57;;;;;;;16.67;100.00;96074.00;5087477;28;20270;-79
2022/08/19 07:47:03;;;;;;;6.13;5.53;;;;;;;16.73;100.00;96081.88;5091024;28;20207;-80
2022/08/19 07:49:30;;;;;;;6.03;5.30;;;;;;;16.72;100.00;96073.97;5069260;28;20201;-80
2022/08/19 07:52:01;;;;;;;7.17;5.57;;;;;;;16.73;100.00;96084.63;5086658;28;20215;-80
2022/08/19 07:54:32;;;;;;;8.80;5.87;;;;;;;16.75;100.00;96087.06;5079288;28;20300;-80
2022/08/19 07:56:59;;;;;;;7.43;5.77;;;;;;;16.71;100.00;96086.78;5079193;28;20232;-80
2022/08/19 07:59:28;;;;;;;9.40;6.20;;;;;;;16.65;100.00;96082.44;5070299;28;20217;-80
2022/08/19 08:01:55;;;;;;;7.90;5.80;;;;;;;16.67;100.00;96096.63;5076801;28;20222;-81
2022/08/19 08:10:00;;;;;;;6.93;6.17;;;;;;;16.66;100.00;96121.44;5083302;28;20287;-81
2022/08/19 08:12:30;;;;;;;7.47;5.80;;;;;;;16.66;100.00;96130.44;5075928;28;20213;-80
2022/08/19 08:15:01;;;;;;;7.57;5.80;;;;;;;16.62;100.00;96121.16;5089560;28;20241;-80
2022/08/19 08:17:30;;;;;;;9.77;5.93;;;;;;;16.67;100.00;96125.81;5072150;28;20259;-80
2022/08/19 08:19:57;;;;;;;8.10;6.00;;;;;;;16.58;100.00;96126.31;5070150;28;20228;-80
2022/08/19 08:25:11;;;;;;;8.63;5.30;;;;;;;16.52;100.00;96138.28;5050118;28;20196;-80
2022/08/19 08:27:40;;;;;;;8.50;6.10;;;;;;;16.57;100.00;96135.59;5078548;28;20208;-80
2022/08/19 08:30:09;;;;;;;7.33;6.17;;;;;;;16.60;100.00;96145.91;5076584;28;20202;-80
2022/08/19 08:32:37;;;;;;;7.37;6.10;;;;;;;16.59;100.00;96149.72;5074776;28;20585;-80
2022/08/19 08:35:05;;;;;;;6.80;5.97;;;;;;;16.61;100.00;96155.75;5085754;28;20233;-81
2022/08/19 08:37:32;;;;;;;8.33;6.43;;;;;;;16.64;100.00;96162.59;5086372;28;20197;-80
2022/08/19 08:39:59;;;;;;;6.77;6.07;;;;;;;16.63;100.00;96150.88;5073826;28;20282;-78
2022/08/19 08:42:36;;;;;;;8.10;6.23;;;;;;;16.61;100.00;96152.22;5079407;28;20444;-80
2022/08/19 08:45:11;;;;;;;7.07;5.93;;;;;;;16.62;100.00;96173.75;5077126;28;20224;-81
2022/08/19 08:47:41;;;;;;;7.67;5.90;;;;;;;16.58;100.00;96175.38;5072001;28;20209;-80
2022/08/19 08:50:15;;;;;;;9.57;6.70;;;;;;;16.58;100.00;96180.00;5082421;28;20205;-80
2022/08/19 08:52:47;;;;;;;6.50;5.80;;;;;;;16.57;100.00;96179.19;5082507;28;20204;-79
2022/08/19 08:55:19;;;;;;;6.97;6.00;;;;;;;16.57;100.00;96183.81;5088304;28;20209;-80
2022/08/19 08:57:56;;;;;;;7.00;5.63;;;;;;;16.48;100.00;96183.53;5086163;28;20255;-80
2022/08/19 09:00:27;;;;;;;7.77;5.77;;;;;;;16.53;100.00;96194.44;5080993;28;20225;-80
2022/08/19 09:02:55;;;;;;;7.63;6.73;;;;;;;16.57;100.00;96194.72;5080141;28;20211;-80
2022/08/19 09:05:23;;;;;;;6.57;5.70;;;;;;;16.56;100.00;96199.34;5083238;28;20305;-80
2022/08/19 09:08:01;;;;;;;8.33;6.93;;;;;;;16.54;100.00;96193.34;5088169;28;20212;-81
2022/08/19 09:10:36;;;;;;;8.70;5.97;;;;;;;16.52;100.00;96200.97;5103038;28;20292;-81
2022/08/19 09:13:15;;;;;;;6.90;5.67;;;;;;;16.47;100.00;96206.44;5094626;28;20250;-80
2022/08/19 09:15:48;;;;;;;7.77;6.30;;;;;;;16.40;100.00;96199.63;5084869;28;20236;-80
2022/08/19 09:18:17;;;;;;;6.47;5.77;;;;;;;16.41;100.00;96201.25;5084910;28;20209;-80
2022/08/19 09:20:44;;;;;;;6.10;5.50;;;;;;;16.32;100.00;96200.97;5076678;28;20220;-80
2022/08/19 09:23:11;;;;;;;8.83;6.33;;;;;;;16.32;100.00;96203.69;5093974;27;20205;-81
2022/08/19 09:25:39;;;;;;;9.27;7.27;;;;;;;16.30;100.00;96197.69;5087822;28;20225;-81
2022/08/19 09:28:08;;;;;;;8.47;6.37;;;;;;;16.30;100.00;96200.41;5084751;28;20200;-78
2022/08/19 09:30:40;;;;;;;7.17;6.40;;;;;;;16.36;100.00;96202.06;5086558;28;20209;-80
2022/08/19 09:33:09;;;;;;;6.80;6.07;;;;;;;16.37;100.00;96205.59;5090242;28;20266;-80
2022/08/19 09:35:36;;;;;;;6.83;5.97;;;;;;;16.39;100.00;96206.97;5084075;28;20208;-81
2022/08/19 09:38:03;;;;;;;8.83;6.60;;;;;;;16.42;100.00;96216.50;5083792;28;20198;-80
2022/08/19 09:40:31;;;;;;;8.37;6.53;;;;;;;16.41;100.00;96212.97;5085748;28;20331;-80
2022/08/19 09:43:00;;;;;;;7.93;6.27;;;;;;;16.40;100.00;96211.34;5078925;28;20209;-81
2022/08/19 09:45:28;;;;;;;10.13;7.00;;;;;;;16.44;100.00;96211.59;5079334;28;20315;-81
2022/08/19 09:47:57;;;;;;;11.37;7.13;;;;;;;16.42;100.00;96211.88;5076937;28;20244;-80
2022/08/19 09:50:24;;;;;;;9.50;6.60;;;;;;;16.40;100.00;96205.06;5086244;28;20208;-81
2022/08/19 09:52:53;;;;;;;8.30;6.60;;;;;;;16.44;100.00;96214.31;5083690;28;20228;-81
2022/08/19 09:55:20;;;;;;;7.57;6.20;;;;;;;16.46;100.00;96221.16;5073278;28;20200;-81
2022/08/19 09:57:47;;;;;;;7.20;6.20;;;;;;;16.42;100.00;96214.59;5077417;28;20247;-81
2022/08/19 10:00:15;;;;;;;6.87;5.73;;;;;;;16.42;100.00;96222.75;5086171;28;20224;-80
2022/08/19 10:02:44;;;;;;;8.00;6.33;;;;;;;16.48;100.00;96229.06;5082789;28;20201;-79
2022/08/19 10:07:55;;;;;;;7.20;6.30;;;;;;;16.55;100.00;96233.16;5085055;28;20323;-79
2022/08/19 10:10:22;;;;;;;9.97;7.13;;;;;;;16.59;100.00;96230.69;5078297;28;20198;-78
2022/08/19 10:12:50;;;;;;;7.77;6.97;;;;;;;16.60;100.00;96237.78;5082231;28;20208;-79
2022/08/19 10:15:20;;;;;;;8.40;6.87;;;;;;;16.61;100.00;96232.09;5079758;28;20297;-79
2022/08/19 10:17:49;;;;;;;7.37;6.40;;;;;;;16.58;100.00;96223.63;5077015;28;20304;-78
2022/08/19 10:20:16;;;;;;;7.80;6.73;;;;;;;16.62;100.00;96238.38;5091201;28;20255;-80
2022/08/19 10:22:44;;;;;;;7.07;5.90;;;;;;;16.58;100.00;96248.97;5072175;28;20209;-78
2022/08/19 10:25:16;;;;;;;6.97;5.87;;;;;;;16.57;100.00;96241.06;5081562;28;20248;-80
2022/08/19 10:27:43;;;;;;;8.90;6.33;;;;;;;16.54;100.00;96239.69;5078253;28;20207;-80
2022/08/19 10:30:12;;;;;;;6.57;5.40;;;;;;;16.54;100.00;96249.78;5080893;28;20290;-80
2022/08/19 10:32:39;;;;;;;8.20;6.23;;;;;;;16.54;100.00;96250.59;5079859;28;20231;-79
2022/08/19 10:35:08;;;;;;;7.60;5.77;;;;;;;16.56;100.00;96259.31;5071362;28;20205;-80
2022/08/19 10:37:36;;;;;;;6.03;5.30;;;;;;;16.55;100.00;96257.69;5082494;28;20224;-79
2022/08/19 10:40:06;;;;;;;8.57;6.47;;;;;;;16.56;100.00;96259.31;5084833;28;20221;-80
2022/08/19 10:42:34;;;;;;;9.37;7.10;;;;;;;16.55;100.00;96265.03;5085618;28;20198;-79
2022/08/19 10:45:01;;;;;;;6.93;6.23;;;;;;;16.49;100.00;96256.06;5078424;28;20229;-80
2022/08/19 10:47:28;;;;;;;8.40;7.20;;;;;;;16.39;100.00;96264.19;5080341;28;20202;-77
2022/08/19 10:52:44;;;;;;;7.50;6.70;;;;;;;16.38;100.00;96270.72;5088559;28;20199;-79
2022/08/19 10:57:57;;;;;;;8.00;6.87;;;;;;;16.30;100.00;96264.97;5083862;28;20197;-79
2022/08/19 11:00:25;;;;;;;7.63;6.57;;;;;;;16.32;100.00;96265.53;5083810;28;20221;-79
2022/08/19 11:02:52;;;;;;;7.43;6.07;;;;;;;16.32;100.00;96266.38;5090129;28;20202;-79
2022/08/19 11:05:22;;;;;;;9.03;8.10;;;;;;;16.31;100.00;96263.91;5082528;28;20213;-79
2022/08/19 11:07:51;;;;;;;7.53;6.60;;;;;;;16.33;100.00;96256.28;5083822;28;20197;-78
2022/08/19 11:10:18;;;;;;;5.90;5.30;;;;;;;16.41;100.00;96261.22;5081698;28;20200;-78
2022/08/19 11:12:47;;;;;;;4.77;4.00;;;;;;;16.45;100.00;96252.22;5081235;28;20213;-79
2022/08/19 11:15:15;;;;;;;7.60;5.73;;;;;;;16.56;100.00;96247.59;5077598;28;20233;-80
2022/08/19 11:17:43;;;;;;;7.07;4.97;;;;;;;16.68;100.00;96247.34;5084501;28;20237;-79
2022/08/19 11:20:12;;;;;;;5.60;4.43;;;;;;;16.75;100.00;96237.03;5069525;28;20288;-80
2022/08/19 11:22:39;;;;;;;4.57;3.80;;;;;;;16.77;100.00;96248.47;5073308;28;20204;-79
2022/08/19 11:25:09;;;;;;;4.80;4.00;;;;;;;16.75;100.00;96245.22;5082049;28;20217;-80
2022/08/19 11:27:39;;;;;;;4.47;4.00;;;;;;;16.79;100.00;96240.84;5084370;28;20254;-79
2022/08/19 11:30:08;;;;;;;6.30;4.60;;;;;;;16.81;100.00;96244.94;5076451;28;20295;-79
2022/08/19 11:32:35;;;;;;;4.43;4.00;;;;;;;16.86;100.00;96249.56;5073316;28;20194;-80
2022/08/19 11:35:02;;;;;;;6.10;4.57;;;;;;;16.82;100.00;96251.22;5080556;28;20208;-79
2022/08/19 11:37:29;;;;;;;6.37;4.63;;;;;;;16.84;100.00;96252.56;5069900;28;20224;-77
2022/08/19 11:39:56;;;;;;;4.90;4.07;;;;;;;16.75;100.00;96254.22;5072793;28;20263;-78
2022/08/19 11:45:10;;;;;;;6.40;5.20;;;;;;;16.69;100.00;96258.00;5072741;28;20205;-78
2022/08/19 11:47:38;;;;;;;4.93;4.43;;;;;;;16.77;100.00;96252.00;5078289;28;20201;-78
2022/08/19 11:50:06;;;;;;;4.87;4.10;;;;;;;16.77;100.00;96262.09;5068419;28;20205;-78
2022/08/19 11:52:33;;;;;;;5.20;3.97;;;;;;;16.80;100.00;96256.09;5098620;28;20214;-77
2022/08/19 11:55:00;;;;;;;5.10;3.80;;;;;;;16.77;100.00;96257.47;5076845;28;20213;-77
2022/08/19 11:57:29;;;;;;;3.80;3.43;;;;;;;16.76;100.00;96263.22;5083759;28;20231;-78